sensor_id;sensor_type;location;lat;lon;timestamp;P1;durP1;ratioP1;P2;durP2;ratioP2
41572;SDS011;27286;47.870;19.006;2023-04-06T00:00:22;6.32;;;2.92;;
41572;SDS011;27286;47.870;19.006;2023-04-06T00:02:48;8.35;;;3.65;;
41572;SDS011;27286;47.870;19.006;2023-04-06T00:05:14;6.72;;;3.70;;
41572;SDS011;27286;47.870;19.006;2023-04-06T00:07:40;8.82;;;4.03;;
41572;SDS011;27286;47.870;19.006;2023-04-06T00:10:06;11.88;;;4.55;;
41572;SDS011;27286;47.870;19.006;2023-04-06T00:12:31;6.97;;;3.70;;
41572;SDS011;27286;47.870;19.006;2023-04-06T00:14:57;11.40;;;4.60;;
41572;SDS011;27286;47.870;19.006;2023-04-06T00:17:22;9.70;;;3.25;;
41572;SDS011;27286;47.870;19.006;2023-04-06T00:19:48;10.30;;;5.78;;
41572;SDS011;27286;47.870;19.006;2023-04-06T00:22:13;12.23;;;6.35;;
41572;SDS011;27286;47.870;19.006;2023-04-06T00:24:39;15.93;;;6.85;;
41572;SDS011;27286;47.870;19.006;2023-04-06T00:27:04;14.38;;;7.15;;
41572;SDS011;27286;47.870;19.006;2023-04-06T00:29:30;14.02;;;8.00;;
41572;SDS011;27286;47.870;19.006;2023-04-06T00:31:55;14.80;;;5.18;;
41572;SDS011;27286;47.870;19.006;2023-04-06T00:34:21;11.70;;;5.03;;
41572;SDS011;27286;47.870;19.006;2023-04-06T00:36:46;8.05;;;4.55;;
41572;SDS011;27286;47.870;19.006;2023-04-06T00:39:11;9.80;;;5.47;;
41572;SDS011;27286;47.870;19.006;2023-04-06T00:41:37;12.25;;;4.28;;
41572;SDS011;27286;47.870;19.006;2023-04-06T00:44:05;8.43;;;4.53;;
41572;SDS011;27286;47.870;19.006;2023-04-06T00:46:31;9.30;;;4.25;;
41572;SDS011;27286;47.870;19.006;2023-04-06T00:48:56;10.60;;;4.90;;
41572;SDS011;27286;47.870;19.006;2023-04-06T00:51:22;8.73;;;5.05;;
41572;SDS011;27286;47.870;19.006;2023-04-06T00:53:47;11.70;;;4.80;;
41572;SDS011;27286;47.870;19.006;2023-04-06T00:56:13;13.50;;;5.85;;
41572;SDS011;27286;47.870;19.006;2023-04-06T00:58:38;8.50;;;3.67;;
41572;SDS011;27286;47.870;19.006;2023-04-06T01:01:05;10.20;;;5.30;;
41572;SDS011;27286;47.870;19.006;2023-04-06T01:03:31;13.73;;;5.20;;
41572;SDS011;27286;47.870;19.006;2023-04-06T01:05:56;8.70;;;4.55;;
41572;SDS011;27286;47.870;19.006;2023-04-06T01:08:23;9.57;;;4.35;;
41572;SDS011;27286;47.870;19.006;2023-04-06T01:10:49;9.52;;;3.78;;
41572;SDS011;27286;47.870;19.006;2023-04-06T01:13:15;9.68;;;3.60;;
41572;SDS011;27286;47.870;19.006;2023-04-06T01:15:40;5.95;;;3.35;;
41572;SDS011;27286;47.870;19.006;2023-04-06T01:18:10;7.03;;;3.30;;
41572;SDS011;27286;47.870;19.006;2023-04-06T01:20:35;8.75;;;3.20;;
41572;SDS011;27286;47.870;19.006;2023-04-06T01:23:01;6.85;;;3.38;;
41572;SDS011;27286;47.870;19.006;2023-04-06T01:25:26;10.05;;;3.15;;
41572;SDS011;27286;47.870;19.006;2023-04-06T01:27:52;8.18;;;3.38;;
41572;SDS011;27286;47.870;19.006;2023-04-06T01:30:17;6.47;;;3.65;;
41572;SDS011;27286;47.870;19.006;2023-04-06T01:32:43;9.75;;;3.50;;
41572;SDS011;27286;47.870;19.006;2023-04-06T01:35:09;7.15;;;3.33;;
41572;SDS011;27286;47.870;19.006;2023-04-06T01:37:35;7.35;;;3.10;;
41572;SDS011;27286;47.870;19.006;2023-04-06T01:40:00;9.13;;;4.60;;
41572;SDS011;27286;47.870;19.006;2023-04-06T01:42:26;8.85;;;2.80;;
41572;SDS011;27286;47.870;19.006;2023-04-06T01:44:51;8.38;;;3.00;;
41572;SDS011;27286;47.870;19.006;2023-04-06T01:47:17;7.30;;;3.45;;
41572;SDS011;27286;47.870;19.006;2023-04-06T01:49:42;6.32;;;3.20;;
41572;SDS011;27286;47.870;19.006;2023-04-06T01:52:07;7.05;;;3.40;;
41572;SDS011;27286;47.870;19.006;2023-04-06T01:54:33;10.73;;;2.92;;
41572;SDS011;27286;47.870;19.006;2023-04-06T01:56:58;10.10;;;4.47;;
41572;SDS011;27286;47.870;19.006;2023-04-06T01:59:24;7.80;;;3.92;;
41572;SDS011;27286;47.870;19.006;2023-04-06T02:01:49;8.45;;;4.60;;
41572;SDS011;27286;47.870;19.006;2023-04-06T02:04:15;9.45;;;3.88;;
41572;SDS011;27286;47.870;19.006;2023-04-06T02:06:40;8.75;;;4.38;;
41572;SDS011;27286;47.870;19.006;2023-04-06T02:09:06;10.52;;;5.05;;
41572;SDS011;27286;47.870;19.006;2023-04-06T02:11:31;8.65;;;4.82;;
41572;SDS011;27286;47.870;19.006;2023-04-06T02:13:57;11.10;;;4.90;;
41572;SDS011;27286;47.870;19.006;2023-04-06T02:16:22;7.05;;;3.75;;
41572;SDS011;27286;47.870;19.006;2023-04-06T02:18:49;8.73;;;4.10;;
41572;SDS011;27286;47.870;19.006;2023-04-06T02:21:15;8.77;;;4.95;;
41572;SDS011;27286;47.870;19.006;2023-04-06T02:23:44;10.20;;;3.88;;
41572;SDS011;27286;47.870;19.006;2023-04-06T02:26:10;7.93;;;3.67;;
41572;SDS011;27286;47.870;19.006;2023-04-06T02:28:36;6.60;;;2.92;;
41572;SDS011;27286;47.870;19.006;2023-04-06T02:31:01;8.02;;;2.67;;
41572;SDS011;27286;47.870;19.006;2023-04-06T02:33:26;8.77;;;3.17;;
41572;SDS011;27286;47.870;19.006;2023-04-06T02:35:52;10.15;;;3.75;;
41572;SDS011;27286;47.870;19.006;2023-04-06T02:38:17;7.53;;;3.65;;
41572;SDS011;27286;47.870;19.006;2023-04-06T02:40:43;10.90;;;4.47;;
41572;SDS011;27286;47.870;19.006;2023-04-06T02:43:08;10.98;;;4.75;;
41572;SDS011;27286;47.870;19.006;2023-04-06T02:45:33;8.07;;;4.10;;
41572;SDS011;27286;47.870;19.006;2023-04-06T02:47:59;12.98;;;4.97;;
41572;SDS011;27286;47.870;19.006;2023-04-06T02:50:24;8.95;;;4.38;;
41572;SDS011;27286;47.870;19.006;2023-04-06T02:52:51;11.13;;;4.47;;
41572;SDS011;27286;47.870;19.006;2023-04-06T02:55:17;7.90;;;4.25;;
41572;SDS011;27286;47.870;19.006;2023-04-06T02:57:43;9.63;;;4.03;;
41572;SDS011;27286;47.870;19.006;2023-04-06T03:00:08;11.63;;;4.45;;
41572;SDS011;27286;47.870;19.006;2023-04-06T03:02:34;9.15;;;3.53;;
41572;SDS011;27286;47.870;19.006;2023-04-06T03:05:00;7.72;;;3.90;;
41572;SDS011;27286;47.870;19.006;2023-04-06T03:07:25;9.85;;;3.90;;
41572;SDS011;27286;47.870;19.006;2023-04-06T03:09:51;7.63;;;4.00;;
41572;SDS011;27286;47.870;19.006;2023-04-06T03:12:16;9.32;;;4.40;;
41572;SDS011;27286;47.870;19.006;2023-04-06T03:14:42;10.52;;;3.17;;
41572;SDS011;27286;47.870;19.006;2023-04-06T03:17:07;6.80;;;3.15;;
41572;SDS011;27286;47.870;19.006;2023-04-06T03:19:33;6.45;;;2.90;;
41572;SDS011;27286;47.870;19.006;2023-04-06T03:21:58;6.82;;;3.03;;
41572;SDS011;27286;47.870;19.006;2023-04-06T03:24:23;10.98;;;3.90;;
41572;SDS011;27286;47.870;19.006;2023-04-06T03:26:49;6.93;;;3.47;;
41572;SDS011;27286;47.870;19.006;2023-04-06T03:29:14;10.15;;;3.65;;
41572;SDS011;27286;47.870;19.006;2023-04-06T03:31:40;6.13;;;3.28;;
41572;SDS011;27286;47.870;19.006;2023-04-06T03:34:05;10.82;;;3.53;;
41572;SDS011;27286;47.870;19.006;2023-04-06T03:36:31;7.97;;;3.40;;
41572;SDS011;27286;47.870;19.006;2023-04-06T03:38:56;6.32;;;2.53;;
41572;SDS011;27286;47.870;19.006;2023-04-06T03:41:22;6.15;;;2.80;;
41572;SDS011;27286;47.870;19.006;2023-04-06T03:43:47;6.93;;;2.90;;
41572;SDS011;27286;47.870;19.006;2023-04-06T03:46:13;6.00;;;3.40;;
41572;SDS011;27286;47.870;19.006;2023-04-06T03:48:38;6.50;;;3.35;;
41572;SDS011;27286;47.870;19.006;2023-04-06T03:51:03;8.85;;;3.15;;
41572;SDS011;27286;47.870;19.006;2023-04-06T03:53:29;7.55;;;3.17;;
41572;SDS011;27286;47.870;19.006;2023-04-06T03:55:55;7.15;;;3.30;;
41572;SDS011;27286;47.870;19.006;2023-04-06T03:58:20;6.82;;;3.20;;
41572;SDS011;27286;47.870;19.006;2023-04-06T04:00:46;7.68;;;3.88;;
41572;SDS011;27286;47.870;19.006;2023-04-06T04:03:11;7.45;;;3.42;;
41572;SDS011;27286;47.870;19.006;2023-04-06T04:05:36;9.27;;;4.07;;
41572;SDS011;27286;47.870;19.006;2023-04-06T04:08:02;7.60;;;3.33;;
41572;SDS011;27286;47.870;19.006;2023-04-06T04:10:27;7.57;;;3.35;;
41572;SDS011;27286;47.870;19.006;2023-04-06T04:12:53;5.95;;;3.67;;
41572;SDS011;27286;47.870;19.006;2023-04-06T04:15:18;9.85;;;4.20;;
41572;SDS011;27286;47.870;19.006;2023-04-06T04:17:43;6.20;;;3.35;;
41572;SDS011;27286;47.870;19.006;2023-04-06T04:20:12;8.50;;;3.20;;
41572;SDS011;27286;47.870;19.006;2023-04-06T04:22:38;8.10;;;3.67;;
41572;SDS011;27286;47.870;19.006;2023-04-06T04:25:03;6.70;;;3.45;;
41572;SDS011;27286;47.870;19.006;2023-04-06T04:27:29;6.63;;;3.80;;
41572;SDS011;27286;47.870;19.006;2023-04-06T04:29:54;5.93;;;3.10;;
41572;SDS011;27286;47.870;19.006;2023-04-06T04:32:20;8.00;;;3.55;;
41572;SDS011;27286;47.870;19.006;2023-04-06T04:34:45;5.25;;;3.00;;
41572;SDS011;27286;47.870;19.006;2023-04-06T04:37:11;8.40;;;4.00;;
41572;SDS011;27286;47.870;19.006;2023-04-06T04:39:36;5.68;;;3.38;;
41572;SDS011;27286;47.870;19.006;2023-04-06T04:42:01;7.25;;;4.03;;
41572;SDS011;27286;47.870;19.006;2023-04-06T04:44:27;9.70;;;4.82;;
41572;SDS011;27286;47.870;19.006;2023-04-06T04:46:52;10.48;;;4.10;;
41572;SDS011;27286;47.870;19.006;2023-04-06T04:49:18;12.68;;;3.90;;
41572;SDS011;27286;47.870;19.006;2023-04-06T04:51:43;6.32;;;3.63;;
41572;SDS011;27286;47.870;19.006;2023-04-06T04:54:08;10.43;;;4.00;;
41572;SDS011;27286;47.870;19.006;2023-04-06T04:56:34;8.65;;;3.28;;
41572;SDS011;27286;47.870;19.006;2023-04-06T04:58:59;6.57;;;3.58;;
41572;SDS011;27286;47.870;19.006;2023-04-06T05:01:25;8.00;;;3.78;;
41572;SDS011;27286;47.870;19.006;2023-04-06T05:03:50;7.03;;;3.10;;
41572;SDS011;27286;47.870;19.006;2023-04-06T05:06:16;7.63;;;3.83;;
41572;SDS011;27286;47.870;19.006;2023-04-06T05:08:41;11.77;;;4.18;;
41572;SDS011;27286;47.870;19.006;2023-04-06T05:11:07;6.95;;;3.80;;
41572;SDS011;27286;47.870;19.006;2023-04-06T05:13:33;6.80;;;3.70;;
41572;SDS011;27286;47.870;19.006;2023-04-06T05:15:59;11.48;;;3.97;;
41572;SDS011;27286;47.870;19.006;2023-04-06T05:18:25;8.95;;;4.10;;
41572;SDS011;27286;47.870;19.006;2023-04-06T05:20:51;8.25;;;4.03;;
41572;SDS011;27286;47.870;19.006;2023-04-06T05:23:16;8.93;;;4.50;;
41572;SDS011;27286;47.870;19.006;2023-04-06T05:25:42;9.23;;;5.10;;
41572;SDS011;27286;47.870;19.006;2023-04-06T05:28:07;11.27;;;5.63;;
41572;SDS011;27286;47.870;19.006;2023-04-06T05:30:33;9.30;;;4.55;;
41572;SDS011;27286;47.870;19.006;2023-04-06T05:33:00;8.70;;;4.13;;
41572;SDS011;27286;47.870;19.006;2023-04-06T05:35:26;11.57;;;4.90;;
41572;SDS011;27286;47.870;19.006;2023-04-06T05:37:51;13.77;;;5.35;;
41572;SDS011;27286;47.870;19.006;2023-04-06T05:40:16;9.98;;;5.47;;
41572;SDS011;27286;47.870;19.006;2023-04-06T05:42:42;9.98;;;5.63;;
41572;SDS011;27286;47.870;19.006;2023-04-06T05:45:08;14.52;;;6.70;;
41572;SDS011;27286;47.870;19.006;2023-04-06T05:47:35;15.23;;;7.63;;
41572;SDS011;27286;47.870;19.006;2023-04-06T05:50:01;10.15;;;6.28;;
41572;SDS011;27286;47.870;19.006;2023-04-06T05:52:26;12.30;;;6.45;;
41572;SDS011;27286;47.870;19.006;2023-04-06T05:54:52;11.77;;;6.80;;
41572;SDS011;27286;47.870;19.006;2023-04-06T05:57:17;13.80;;;7.38;;
41572;SDS011;27286;47.870;19.006;2023-04-06T05:59:43;10.85;;;6.30;;
41572;SDS011;27286;47.870;19.006;2023-04-06T06:02:09;15.98;;;6.28;;
41572;SDS011;27286;47.870;19.006;2023-04-06T06:04:34;14.93;;;6.40;;
41572;SDS011;27286;47.870;19.006;2023-04-06T06:07:00;14.18;;;6.00;;
41572;SDS011;27286;47.870;19.006;2023-04-06T06:09:25;12.30;;;6.25;;
41572;SDS011;27286;47.870;19.006;2023-04-06T06:11:51;14.95;;;8.82;;
41572;SDS011;27286;47.870;19.006;2023-04-06T06:14:16;13.52;;;7.32;;
41572;SDS011;27286;47.870;19.006;2023-04-06T06:16:42;11.27;;;6.25;;
41572;SDS011;27286;47.870;19.006;2023-04-06T06:19:07;10.35;;;6.65;;
41572;SDS011;27286;47.870;19.006;2023-04-06T06:21:33;14.55;;;4.97;;
41572;SDS011;27286;47.870;19.006;2023-04-06T06:23:58;11.98;;;4.63;;
41572;SDS011;27286;47.870;19.006;2023-04-06T06:26:24;14.07;;;5.75;;
41572;SDS011;27286;47.870;19.006;2023-04-06T06:28:49;9.90;;;4.65;;
41572;SDS011;27286;47.870;19.006;2023-04-06T06:31:15;10.05;;;5.22;;
41572;SDS011;27286;47.870;19.006;2023-04-06T06:33:41;8.85;;;5.72;;
41572;SDS011;27286;47.870;19.006;2023-04-06T06:36:06;9.95;;;4.78;;
41572;SDS011;27286;47.870;19.006;2023-04-06T06:38:32;10.18;;;4.32;;
41572;SDS011;27286;47.870;19.006;2023-04-06T06:40:57;11.13;;;4.72;;
41572;SDS011;27286;47.870;19.006;2023-04-06T06:43:23;9.85;;;5.00;;
41572;SDS011;27286;47.870;19.006;2023-04-06T06:45:48;10.63;;;6.10;;
41572;SDS011;27286;47.870;19.006;2023-04-06T06:48:14;12.00;;;5.53;;
41572;SDS011;27286;47.870;19.006;2023-04-06T06:50:40;10.80;;;4.22;;
41572;SDS011;27286;47.870;19.006;2023-04-06T06:53:05;10.05;;;4.85;;
41572;SDS011;27286;47.870;19.006;2023-04-06T06:55:31;13.30;;;6.72;;
41572;SDS011;27286;47.870;19.006;2023-04-06T06:57:56;8.45;;;4.47;;
41572;SDS011;27286;47.870;19.006;2023-04-06T07:00:22;7.63;;;4.57;;
41572;SDS011;27286;47.870;19.006;2023-04-06T07:02:47;9.85;;;4.60;;
41572;SDS011;27286;47.870;19.006;2023-04-06T07:05:13;8.68;;;4.65;;
41572;SDS011;27286;47.870;19.006;2023-04-06T07:07:40;9.43;;;5.18;;
41572;SDS011;27286;47.870;19.006;2023-04-06T07:10:07;12.85;;;5.88;;
41572;SDS011;27286;47.870;19.006;2023-04-06T07:12:33;13.45;;;4.93;;
41572;SDS011;27286;47.870;19.006;2023-04-06T07:14:58;8.13;;;4.18;;
41572;SDS011;27286;47.870;19.006;2023-04-06T07:17:24;15.82;;;4.63;;
41572;SDS011;27286;47.870;19.006;2023-04-06T07:19:49;11.93;;;4.43;;
41572;SDS011;27286;47.870;19.006;2023-04-06T07:22:15;12.77;;;4.10;;
41572;SDS011;27286;47.870;19.006;2023-04-06T07:24:40;8.38;;;3.88;;
41572;SDS011;27286;47.870;19.006;2023-04-06T07:27:06;15.73;;;5.03;;
41572;SDS011;27286;47.870;19.006;2023-04-06T07:29:32;14.40;;;4.72;;
41572;SDS011;27286;47.870;19.006;2023-04-06T07:31:57;17.30;;;5.05;;
41572;SDS011;27286;47.870;19.006;2023-04-06T07:34:23;13.38;;;4.13;;
41572;SDS011;27286;47.870;19.006;2023-04-06T07:36:48;8.02;;;4.60;;
41572;SDS011;27286;47.870;19.006;2023-04-06T07:39:14;19.23;;;4.18;;
41572;SDS011;27286;47.870;19.006;2023-04-06T07:41:40;7.43;;;3.78;;
41572;SDS011;27286;47.870;19.006;2023-04-06T07:44:05;10.75;;;4.40;;
41572;SDS011;27286;47.870;19.006;2023-04-06T07:46:31;8.68;;;4.30;;
41572;SDS011;27286;47.870;19.006;2023-04-06T07:48:57;7.47;;;4.32;;
41572;SDS011;27286;47.870;19.006;2023-04-06T07:51:26;7.50;;;3.88;;
41572;SDS011;27286;47.870;19.006;2023-04-06T07:53:52;7.20;;;3.78;;
41572;SDS011;27286;47.870;19.006;2023-04-06T07:56:17;6.85;;;3.63;;
41572;SDS011;27286;47.870;19.006;2023-04-06T07:58:43;9.55;;;4.32;;
41572;SDS011;27286;47.870;19.006;2023-04-06T08:01:08;10.68;;;5.30;;
41572;SDS011;27286;47.870;19.006;2023-04-06T08:03:34;11.45;;;4.05;;
41572;SDS011;27286;47.870;19.006;2023-04-06T08:06:01;6.95;;;3.85;;
41572;SDS011;27286;47.870;19.006;2023-04-06T08:08:27;8.23;;;4.38;;
41572;SDS011;27286;47.870;19.006;2023-04-06T08:10:53;11.02;;;3.95;;
41572;SDS011;27286;47.870;19.006;2023-04-06T08:13:18;6.20;;;3.38;;
41572;SDS011;27286;47.870;19.006;2023-04-06T08:15:44;9.85;;;3.22;;
41572;SDS011;27286;47.870;19.006;2023-04-06T08:18:09;6.70;;;3.40;;
41572;SDS011;27286;47.870;19.006;2023-04-06T08:20:35;9.27;;;3.50;;
41572;SDS011;27286;47.870;19.006;2023-04-06T08:23:00;21.33;;;13.43;;
41572;SDS011;27286;47.870;19.006;2023-04-06T08:25:26;9.80;;;4.35;;
41572;SDS011;27286;47.870;19.006;2023-04-06T08:27:52;17.08;;;10.20;;
41572;SDS011;27286;47.870;19.006;2023-04-06T08:30:17;7.40;;;3.65;;
41572;SDS011;27286;47.870;19.006;2023-04-06T08:32:44;6.85;;;3.63;;
41572;SDS011;27286;47.870;19.006;2023-04-06T08:35:10;5.68;;;2.50;;
41572;SDS011;27286;47.870;19.006;2023-04-06T08:37:36;5.90;;;3.25;;
41572;SDS011;27286;47.870;19.006;2023-04-06T08:40:01;6.25;;;3.60;;
41572;SDS011;27286;47.870;19.006;2023-04-06T08:42:28;5.88;;;3.53;;
41572;SDS011;27286;47.870;19.006;2023-04-06T08:44:57;7.80;;;3.75;;
41572;SDS011;27286;47.870;19.006;2023-04-06T08:47:23;7.53;;;3.90;;
41572;SDS011;27286;47.870;19.006;2023-04-06T08:49:48;9.32;;;3.35;;
41572;SDS011;27286;47.870;19.006;2023-04-06T08:52:15;6.40;;;3.30;;
41572;SDS011;27286;47.870;19.006;2023-04-06T08:54:43;6.05;;;3.63;;
41572;SDS011;27286;47.870;19.006;2023-04-06T08:57:08;10.98;;;3.50;;
41572;SDS011;27286;47.870;19.006;2023-04-06T08:59:34;6.90;;;3.72;;
41572;SDS011;27286;47.870;19.006;2023-04-06T09:02:00;6.82;;;3.20;;
41572;SDS011;27286;47.870;19.006;2023-04-06T09:04:28;7.22;;;4.25;;
41572;SDS011;27286;47.870;19.006;2023-04-06T09:06:54;7.82;;;4.40;;
41572;SDS011;27286;47.870;19.006;2023-04-06T09:09:19;6.65;;;3.78;;
41572;SDS011;27286;47.870;19.006;2023-04-06T09:11:46;6.82;;;3.47;;
41572;SDS011;27286;47.870;19.006;2023-04-06T09:14:15;8.05;;;4.43;;
41572;SDS011;27286;47.870;19.006;2023-04-06T09:16:42;9.02;;;4.65;;
41572;SDS011;27286;47.870;19.006;2023-04-06T09:19:09;7.32;;;4.80;;
41572;SDS011;27286;47.870;19.006;2023-04-06T09:21:36;9.55;;;4.40;;
41572;SDS011;27286;47.870;19.006;2023-04-06T09:24:02;9.32;;;4.65;;
41572;SDS011;27286;47.870;19.006;2023-04-06T09:26:28;7.00;;;3.17;;
41572;SDS011;27286;47.870;19.006;2023-04-06T09:28:54;6.70;;;3.28;;
41572;SDS011;27286;47.870;19.006;2023-04-06T09:31:30;9.07;;;3.65;;
41572;SDS011;27286;47.870;19.006;2023-04-06T09:33:58;10.07;;;4.65;;
41572;SDS011;27286;47.870;19.006;2023-04-06T09:36:31;7.95;;;4.03;;
41572;SDS011;27286;47.870;19.006;2023-04-06T09:39:01;6.85;;;3.78;;
41572;SDS011;27286;47.870;19.006;2023-04-06T09:41:29;10.38;;;4.28;;
41572;SDS011;27286;47.870;19.006;2023-04-06T09:44:02;8.98;;;4.63;;
41572;SDS011;27286;47.870;19.006;2023-04-06T09:46:31;5.55;;;3.28;;
41572;SDS011;27286;47.870;19.006;2023-04-06T09:48:59;9.60;;;4.28;;
41572;SDS011;27286;47.870;19.006;2023-04-06T09:51:30;6.18;;;3.53;;
41572;SDS011;27286;47.870;19.006;2023-04-06T09:53:57;8.20;;;4.05;;
41572;SDS011;27286;47.870;19.006;2023-04-06T09:56:30;7.95;;;3.22;;
41572;SDS011;27286;47.870;19.006;2023-04-06T09:59:04;9.02;;;3.80;;
41572;SDS011;27286;47.870;19.006;2023-04-06T10:01:34;7.07;;;3.65;;
41572;SDS011;27286;47.870;19.006;2023-04-06T10:06:59;8.20;;;3.38;;
41572;SDS011;27286;47.870;19.006;2023-04-06T10:09:28;7.00;;;3.60;;
41572;SDS011;27286;47.870;19.006;2023-04-06T10:12:00;6.90;;;3.38;;
41572;SDS011;27286;47.870;19.006;2023-04-06T10:14:31;8.43;;;3.90;;
41572;SDS011;27286;47.870;19.006;2023-04-06T10:16:58;8.10;;;4.20;;
41572;SDS011;27286;47.870;19.006;2023-04-06T10:19:26;8.57;;;3.70;;
41572;SDS011;27286;47.870;19.006;2023-04-06T10:21:57;9.68;;;4.03;;
41572;SDS011;27286;47.870;19.006;2023-04-06T10:24:24;11.65;;;3.55;;
41572;SDS011;27286;47.870;19.006;2023-04-06T10:27:03;5.93;;;3.50;;
41572;SDS011;27286;47.870;19.006;2023-04-06T10:29:42;6.43;;;3.28;;
41572;SDS011;27286;47.870;19.006;2023-04-06T10:32:11;5.75;;;2.55;;
41572;SDS011;27286;47.870;19.006;2023-04-06T10:34:37;5.50;;;2.70;;
41572;SDS011;27286;47.870;19.006;2023-04-06T10:37:15;6.65;;;2.95;;
41572;SDS011;27286;47.870;19.006;2023-04-06T10:39:53;6.75;;;2.85;;
41572;SDS011;27286;47.870;19.006;2023-04-06T10:42:36;5.80;;;2.55;;
41572;SDS011;27286;47.870;19.006;2023-04-06T10:45:06;5.22;;;2.75;;
41572;SDS011;27286;47.870;19.006;2023-04-06T10:47:39;6.35;;;2.85;;
41572;SDS011;27286;47.870;19.006;2023-04-06T10:50:05;6.03;;;1.92;;
41572;SDS011;27286;47.870;19.006;2023-04-06T10:52:31;3.70;;;2.13;;
41572;SDS011;27286;47.870;19.006;2023-04-06T10:54:56;3.38;;;1.95;;
41572;SDS011;27286;47.870;19.006;2023-04-06T10:57:28;4.20;;;2.22;;
41572;SDS011;27286;47.870;19.006;2023-04-06T10:59:55;4.85;;;2.70;;
41572;SDS011;27286;47.870;19.006;2023-04-06T11:02:21;4.93;;;2.40;;
41572;SDS011;27286;47.870;19.006;2023-04-06T11:04:56;3.17;;;1.60;;
41572;SDS011;27286;47.870;19.006;2023-04-06T11:07:25;20.52;;;2.25;;
41572;SDS011;27286;47.870;19.006;2023-04-06T11:09:52;5.82;;;2.50;;
41572;SDS011;27286;47.870;19.006;2023-04-06T11:12:24;5.85;;;2.63;;
41572;SDS011;27286;47.870;19.006;2023-04-06T11:14:55;5.43;;;2.72;;
41572;SDS011;27286;47.870;19.006;2023-04-06T11:17:29;6.13;;;2.83;;
41572;SDS011;27286;47.870;19.006;2023-04-06T11:19:56;5.13;;;2.17;;
41572;SDS011;27286;47.870;19.006;2023-04-06T11:22:22;4.25;;;2.30;;
41572;SDS011;27286;47.870;19.006;2023-04-06T11:24:48;7.35;;;2.50;;
41572;SDS011;27286;47.870;19.006;2023-04-06T11:27:14;5.38;;;2.55;;
41572;SDS011;27286;47.870;19.006;2023-04-06T11:29:41;4.53;;;2.45;;
41572;SDS011;27286;47.870;19.006;2023-04-06T11:32:07;9.43;;;2.97;;
41572;SDS011;27286;47.870;19.006;2023-04-06T11:34:37;5.63;;;2.95;;
41572;SDS011;27286;47.870;19.006;2023-04-06T11:37:04;5.57;;;2.33;;
41572;SDS011;27286;47.870;19.006;2023-04-06T11:39:37;3.42;;;2.20;;
41572;SDS011;27286;47.870;19.006;2023-04-06T11:42:08;6.25;;;2.33;;
41572;SDS011;27286;47.870;19.006;2023-04-06T11:44:38;6.60;;;2.58;;
41572;SDS011;27286;47.870;19.006;2023-04-06T11:47:07;9.75;;;2.85;;
41572;SDS011;27286;47.870;19.006;2023-04-06T11:49:36;6.78;;;2.70;;
41572;SDS011;27286;47.870;19.006;2023-04-06T11:52:13;6.03;;;2.40;;
41572;SDS011;27286;47.870;19.006;2023-04-06T11:54:43;4.90;;;2.67;;
41572;SDS011;27286;47.870;19.006;2023-04-06T11:57:09;4.20;;;2.45;;
41572;SDS011;27286;47.870;19.006;2023-04-06T11:59:34;8.60;;;2.83;;
41572;SDS011;27286;47.870;19.006;2023-04-06T12:02:01;5.88;;;3.03;;
41572;SDS011;27286;47.870;19.006;2023-04-06T12:04:27;9.50;;;2.90;;
41572;SDS011;27286;47.870;19.006;2023-04-06T12:06:53;4.30;;;2.58;;
41572;SDS011;27286;47.870;19.006;2023-04-06T12:09:19;4.72;;;2.40;;
41572;SDS011;27286;47.870;19.006;2023-04-06T12:11:45;5.97;;;2.55;;
41572;SDS011;27286;47.870;19.006;2023-04-06T12:14:11;4.93;;;2.55;;
41572;SDS011;27286;47.870;19.006;2023-04-06T12:16:37;5.38;;;2.88;;
41572;SDS011;27286;47.870;19.006;2023-04-06T12:19:02;4.75;;;2.38;;
41572;SDS011;27286;47.870;19.006;2023-04-06T12:21:28;4.47;;;2.90;;
41572;SDS011;27286;47.870;19.006;2023-04-06T12:23:55;7.75;;;2.88;;
41572;SDS011;27286;47.870;19.006;2023-04-06T12:26:21;3.75;;;2.42;;
41572;SDS011;27286;47.870;19.006;2023-04-06T12:28:47;6.65;;;2.60;;
41572;SDS011;27286;47.870;19.006;2023-04-06T12:31:18;5.68;;;2.92;;
41572;SDS011;27286;47.870;19.006;2023-04-06T12:33:49;5.70;;;2.60;;
41572;SDS011;27286;47.870;19.006;2023-04-06T12:36:15;7.68;;;2.83;;
41572;SDS011;27286;47.870;19.006;2023-04-06T12:38:46;7.18;;;2.75;;
41572;SDS011;27286;47.870;19.006;2023-04-06T12:41:12;5.47;;;2.20;;
41572;SDS011;27286;47.870;19.006;2023-04-06T12:43:38;8.90;;;2.63;;
41572;SDS011;27286;47.870;19.006;2023-04-06T12:46:05;4.45;;;2.47;;
41572;SDS011;27286;47.870;19.006;2023-04-06T12:48:30;6.32;;;2.58;;
41572;SDS011;27286;47.870;19.006;2023-04-06T12:50:57;5.70;;;2.90;;
41572;SDS011;27286;47.870;19.006;2023-04-06T12:53:24;3.78;;;1.95;;
41572;SDS011;27286;47.870;19.006;2023-04-06T12:55:50;3.60;;;1.58;;
41572;SDS011;27286;47.870;19.006;2023-04-06T12:58:17;5.65;;;2.15;;
41572;SDS011;27286;47.870;19.006;2023-04-06T13:00:42;5.50;;;2.45;;
41572;SDS011;27286;47.870;19.006;2023-04-06T13:03:08;6.00;;;2.80;;
41572;SDS011;27286;47.870;19.006;2023-04-06T13:05:34;6.25;;;3.03;;
41572;SDS011;27286;47.870;19.006;2023-04-06T13:07:59;8.05;;;3.90;;
41572;SDS011;27286;47.870;19.006;2023-04-06T13:10:25;5.40;;;2.95;;
41572;SDS011;27286;47.870;19.006;2023-04-06T13:12:51;4.18;;;2.05;;
41572;SDS011;27286;47.870;19.006;2023-04-06T13:15:17;3.90;;;2.33;;
41572;SDS011;27286;47.870;19.006;2023-04-06T13:17:42;5.50;;;2.70;;
41572;SDS011;27286;47.870;19.006;2023-04-06T13:20:08;5.88;;;2.10;;
41572;SDS011;27286;47.870;19.006;2023-04-06T13:22:34;5.03;;;2.10;;
41572;SDS011;27286;47.870;19.006;2023-04-06T13:25:00;18.08;;;8.88;;
41572;SDS011;27286;47.870;19.006;2023-04-06T13:27:25;12.45;;;6.15;;
41572;SDS011;27286;47.870;19.006;2023-04-06T13:29:52;11.65;;;5.22;;
41572;SDS011;27286;47.870;19.006;2023-04-06T13:32:18;6.63;;;3.00;;
41572;SDS011;27286;47.870;19.006;2023-04-06T13:34:43;7.65;;;4.50;;
41572;SDS011;27286;47.870;19.006;2023-04-06T13:37:11;8.82;;;4.20;;
41572;SDS011;27286;47.870;19.006;2023-04-06T13:39:38;16.05;;;9.27;;
41572;SDS011;27286;47.870;19.006;2023-04-06T13:42:03;7.80;;;4.15;;
41572;SDS011;27286;47.870;19.006;2023-04-06T13:44:29;5.60;;;3.35;;
41572;SDS011;27286;47.870;19.006;2023-04-06T13:46:55;6.68;;;2.97;;
41572;SDS011;27286;47.870;19.006;2023-04-06T13:49:21;8.27;;;3.65;;
41572;SDS011;27286;47.870;19.006;2023-04-06T13:51:47;9.45;;;2.67;;
41572;SDS011;27286;47.870;19.006;2023-04-06T13:54:12;7.30;;;2.70;;
41572;SDS011;27286;47.870;19.006;2023-04-06T13:56:37;4.72;;;2.88;;
41572;SDS011;27286;47.870;19.006;2023-04-06T13:59:03;5.03;;;2.60;;
41572;SDS011;27286;47.870;19.006;2023-04-06T14:01:28;6.07;;;2.90;;
41572;SDS011;27286;47.870;19.006;2023-04-06T14:03:54;5.60;;;2.83;;
41572;SDS011;27286;47.870;19.006;2023-04-06T14:06:19;6.38;;;2.92;;
41572;SDS011;27286;47.870;19.006;2023-04-06T14:08:45;8.60;;;3.20;;
41572;SDS011;27286;47.870;19.006;2023-04-06T14:11:14;8.60;;;4.70;;
41572;SDS011;27286;47.870;19.006;2023-04-06T14:13:40;7.20;;;2.60;;
41572;SDS011;27286;47.870;19.006;2023-04-06T14:16:05;7.07;;;3.03;;
41572;SDS011;27286;47.870;19.006;2023-04-06T14:18:32;7.20;;;3.03;;
41572;SDS011;27286;47.870;19.006;2023-04-06T14:20:59;5.57;;;2.92;;
41572;SDS011;27286;47.870;19.006;2023-04-06T14:23:26;5.57;;;3.13;;
41572;SDS011;27286;47.870;19.006;2023-04-06T14:26:05;6.05;;;3.42;;
41572;SDS011;27286;47.870;19.006;2023-04-06T14:28:32;5.70;;;3.35;;